sensor_id;sensor_type;location;lat;lon;timestamp;temperature;humidity
72202;SHT30;60105;54.956;73.412;2023-07-31T00:00:37;19.06;82.57
72202;SHT30;60105;54.956;73.412;2023-07-31T00:03:38;19.07;82.68
72202;SHT30;60105;54.956;73.412;2023-07-31T00:06:39;19.03;82.80
72202;SHT30;60105;54.956;73.412;2023-07-31T00:09:41;19.05;83.52
72202;SHT30;60105;54.956;73.412;2023-07-31T00:13:24;19.07;83.02
72202;SHT30;60105;54.956;73.412;2023-07-31T00:16:26;19.09;83.26
72202;SHT30;60105;54.956;73.412;2023-07-31T00:19:27;19.09;83.92
72202;SHT30;60105;54.956;73.412;2023-07-31T00:22:28;19.10;84.37
72202;SHT30;60105;54.956;73.412;2023-07-31T00:25:30;19.07;84.83
72202;SHT30;60105;54.956;73.412;2023-07-31T00:28:31;19.06;85.01
72202;SHT30;60105;54.956;73.412;2023-07-31T00:31:33;19.03;85.00
72202;SHT30;60105;54.956;73.412;2023-07-31T00:34:34;19.03;85.24
72202;SHT30;60105;54.956;73.412;2023-07-31T00:37:37;19.07;85.22
72202;SHT30;60105;54.956;73.412;2023-07-31T00:40:38;19.07;85.30
72202;SHT30;60105;54.956;73.412;2023-07-31T00:43:40;19.10;85.09
72202;SHT30;60105;54.956;73.412;2023-07-31T00:46:42;19.12;85.16
72202;SHT30;60105;54.956;73.412;2023-07-31T00:49:44;19.14;84.41
72202;SHT30;60105;54.956;73.412;2023-07-31T00:53:24;19.12;84.18
72202;SHT30;60105;54.956;73.412;2023-07-31T00:56:27;19.10;84.25
72202;SHT30;60105;54.956;73.412;2023-07-31T00:59:29;19.07;83.86
72202;SHT30;60105;54.956;73.412;2023-07-31T01:02:31;19.03;83.69
72202;SHT30;60105;54.956;73.412;2023-07-31T01:09:39;19.07;83.74
72202;SHT30;60105;54.956;73.412;2023-07-31T01:13:25;19.16;83.53
72202;SHT30;60105;54.956;73.412;2023-07-31T01:16:26;19.24;83.38
72202;SHT30;60105;54.956;73.412;2023-07-31T01:19:28;19.33;83.12
72202;SHT30;60105;54.956;73.412;2023-07-31T01:26:18;19.51;82.86
72202;SHT30;60105;54.956;73.412;2023-07-31T01:29:35;19.53;83.04
72202;SHT30;60105;54.956;73.412;2023-07-31T01:32:42;19.61;82.93
72202;SHT30;60105;54.956;73.412;2023-07-31T01:35:45;19.65;82.83
72202;SHT30;60105;54.956;73.412;2023-07-31T01:38:47;19.71;83.11
72202;SHT30;60105;54.956;73.412;2023-07-31T01:41:48;19.74;83.02
72202;SHT30;60105;54.956;73.412;2023-07-31T01:44:50;19.79;83.00
72202;SHT30;60105;54.956;73.412;2023-07-31T01:47:53;19.84;82.81
72202;SHT30;60105;54.956;73.412;2023-07-31T01:50:54;19.96;82.56
72202;SHT30;60105;54.956;73.412;2023-07-31T01:53:55;20.04;82.39
72202;SHT30;60105;54.956;73.412;2023-07-31T01:56:57;20.08;82.40
72202;SHT30;60105;54.956;73.412;2023-07-31T01:59:58;20.18;82.07
72202;SHT30;60105;54.956;73.412;2023-07-31T02:03:24;20.26;82.15
72202;SHT30;60105;54.956;73.412;2023-07-31T02:06:28;20.36;81.37
72202;SHT30;60105;54.956;73.412;2023-07-31T02:09:29;20.42;81.18
72202;SHT30;60105;54.956;73.412;2023-07-31T02:12:30;20.54;80.80
72202;SHT30;60105;54.956;73.412;2023-07-31T02:15:33;20.61;80.88
72202;SHT30;60105;54.956;73.412;2023-07-31T02:18:35;20.66;80.58
72202;SHT30;60105;54.956;73.412;2023-07-31T02:21:36;20.71;80.31
72202;SHT30;60105;54.956;73.412;2023-07-31T02:24:38;20.88;79.46
72202;SHT30;60105;54.956;73.412;2023-07-31T02:27:39;20.94;79.18
72202;SHT30;60105;54.956;73.412;2023-07-31T02:30:45;21.02;79.26
72202;SHT30;60105;54.956;73.412;2023-07-31T02:33:47;21.05;79.00
72202;SHT30;60105;54.956;73.412;2023-07-31T02:36:48;21.14;79.05
72202;SHT30;60105;54.956;73.412;2023-07-31T02:39:50;21.21;78.55
72202;SHT30;60105;54.956;73.412;2023-07-31T02:43:24;21.31;78.53
72202;SHT30;60105;54.956;73.412;2023-07-31T02:46:26;21.38;78.18
72202;SHT30;60105;54.956;73.412;2023-07-31T02:49:27;21.43;78.23
72202;SHT30;60105;54.956;73.412;2023-07-31T02:52:29;21.46;77.92
72202;SHT30;60105;54.956;73.412;2023-07-31T02:55:31;21.55;77.92
72202;SHT30;60105;54.956;73.412;2023-07-31T02:58:32;21.62;77.46
72202;SHT30;60105;54.956;73.412;2023-07-31T03:01:34;21.69;77.17
72202;SHT30;60105;54.956;73.412;2023-07-31T03:04:35;21.75;76.33
72202;SHT30;60105;54.956;73.412;2023-07-31T03:07:36;21.90;76.01
72202;SHT30;60105;54.956;73.412;2023-07-31T03:10:37;21.99;75.92
72202;SHT30;60105;54.956;73.412;2023-07-31T03:13:39;22.13;75.77
72202;SHT30;60105;54.956;73.412;2023-07-31T03:16:40;22.20;75.76
72202;SHT30;60105;54.956;73.412;2023-07-31T03:19:42;22.27;75.01
72202;SHT30;60105;54.956;73.412;2023-07-31T03:23:24;22.37;74.15
72202;SHT30;60105;54.956;73.412;2023-07-31T03:26:26;22.44;74.20
72202;SHT30;60105;54.956;73.412;2023-07-31T03:29:28;22.57;74.13
72202;SHT30;60105;54.956;73.412;2023-07-31T03:32:29;22.61;74.06
72202;SHT30;60105;54.956;73.412;2023-07-31T03:35:30;22.68;73.53
72202;SHT30;60105;54.956;73.412;2023-07-31T03:38:33;22.75;73.27
72202;SHT30;60105;54.956;73.412;2023-07-31T03:41:35;22.82;72.93
72202;SHT30;60105;54.956;73.412;2023-07-31T03:44:36;22.91;71.87
72202;SHT30;60105;54.956;73.412;2023-07-31T03:47:37;22.96;72.00
72202;SHT30;60105;54.956;73.412;2023-07-31T03:50:38;23.05;71.63
72202;SHT30;60105;54.956;73.412;2023-07-31T03:53:40;23.15;71.10
72202;SHT30;60105;54.956;73.412;2023-07-31T03:56:42;23.27;67.82
72202;SHT30;60105;54.956;73.412;2023-07-31T03:59:43;23.40;67.67
72202;SHT30;60105;54.956;73.412;2023-07-31T04:03:24;23.53;67.50
72202;SHT30;60105;54.956;73.412;2023-07-31T04:06:27;23.60;66.79
72202;SHT30;60105;54.956;73.412;2023-07-31T04:09:28;23.70;66.63
72202;SHT30;60105;54.956;73.412;2023-07-31T04:12:29;23.73;65.99
72202;SHT30;60105;54.956;73.412;2023-07-31T04:15:32;23.74;65.62
72202;SHT30;60105;54.956;73.412;2023-07-31T04:18:34;23.75;65.56
72202;SHT30;60105;54.956;73.412;2023-07-31T04:21:35;23.84;67.03
72202;SHT30;60105;54.956;73.412;2023-07-31T04:24:36;23.95;67.43
72202;SHT30;60105;54.956;73.412;2023-07-31T04:27:38;24.09;67.03
72202;SHT30;60105;54.956;73.412;2023-07-31T04:30:39;24.15;66.49
72202;SHT30;60105;54.956;73.412;2023-07-31T04:33:41;24.19;65.80
72202;SHT30;60105;54.956;73.412;2023-07-31T04:36:42;24.29;65.25
72202;SHT30;60105;54.956;73.412;2023-07-31T04:39:43;24.35;65.34
72202;SHT30;60105;54.956;73.412;2023-07-31T04:43:23;24.37;65.51
72202;SHT30;60105;54.956;73.412;2023-07-31T04:46:24;24.46;64.62
72202;SHT30;60105;54.956;73.412;2023-07-31T04:49:26;24.52;63.59
72202;SHT30;60105;54.956;73.412;2023-07-31T04:52:27;24.62;64.12
72202;SHT30;60105;54.956;73.412;2023-07-31T04:55:28;24.56;64.55
72202;SHT30;60105;54.956;73.412;2023-07-31T04:58:29;24.57;64.98
72202;SHT30;60105;54.956;73.412;2023-07-31T05:01:31;24.70;65.10
72202;SHT30;60105;54.956;73.412;2023-07-31T05:04:32;24.80;61.29
72202;SHT30;60105;54.956;73.412;2023-07-31T05:07:33;24.77;61.96
72202;SHT30;60105;54.956;73.412;2023-07-31T05:10:35;24.88;62.56
72202;SHT30;60105;54.956;73.412;2023-07-31T05:13:36;24.94;61.99
72202;SHT30;60105;54.956;73.412;2023-07-31T05:16:52;25.06;61.79
72202;SHT30;60105;54.956;73.412;2023-07-31T05:19:54;25.11;61.22
72202;SHT30;60105;54.956;73.412;2023-07-31T05:23:24;25.11;60.23
72202;SHT30;60105;54.956;73.412;2023-07-31T05:26:26;25.12;59.71
72202;SHT30;60105;54.956;73.412;2023-07-31T05:29:27;25.27;59.07
72202;SHT30;60105;54.956;73.412;2023-07-31T05:32:28;25.32;57.57
72202;SHT30;60105;54.956;73.412;2023-07-31T05:35:29;25.43;57.95
72202;SHT30;60105;54.956;73.412;2023-07-31T05:38:31;25.48;57.89
72202;SHT30;60105;54.956;73.412;2023-07-31T05:41:32;25.52;58.48
72202;SHT30;60105;54.956;73.412;2023-07-31T05:44:34;25.58;58.92
72202;SHT30;60105;54.956;73.412;2023-07-31T05:47:35;25.66;57.86
72202;SHT30;60105;54.956;73.412;2023-07-31T05:50:36;25.75;57.27
72202;SHT30;60105;54.956;73.412;2023-07-31T05:53:41;25.75;54.88
72202;SHT30;60105;54.956;73.412;2023-07-31T05:56:42;25.58;55.71
72202;SHT30;60105;54.956;73.412;2023-07-31T05:59:43;25.45;56.05
72202;SHT30;60105;54.956;73.412;2023-07-31T06:03:24;25.57;55.61
72202;SHT30;60105;54.956;73.412;2023-07-31T06:06:25;25.75;56.83
72202;SHT30;60105;54.956;73.412;2023-07-31T06:09:27;25.93;57.24
72202;SHT30;60105;54.956;73.412;2023-07-31T06:12:28;26.12;56.02
72202;SHT30;60105;54.956;73.412;2023-07-31T06:15:30;26.31;56.48
72202;SHT30;60105;54.956;73.412;2023-07-31T06:18:34;26.49;55.58
72202;SHT30;60105;54.956;73.412;2023-07-31T06:21:36;26.59;53.24
72202;SHT30;60105;54.956;73.412;2023-07-31T06:24:43;26.58;53.03
72202;SHT30;60105;54.956;73.412;2023-07-31T06:28:31;26.40;54.82
72202;SHT30;60105;54.956;73.412;2023-07-31T06:31:32;26.21;55.44
72202;SHT30;60105;54.956;73.412;2023-07-31T06:34:34;26.14;54.63
72202;SHT30;60105;54.956;73.412;2023-07-31T06:37:35;26.26;54.71
72202;SHT30;60105;54.956;73.412;2023-07-31T06:40:36;26.62;54.14
72202;SHT30;60105;54.956;73.412;2023-07-31T06:43:38;26.88;54.61
72202;SHT30;60105;54.956;73.412;2023-07-31T06:46:39;27.09;53.25
72202;SHT30;60105;54.956;73.412;2023-07-31T06:49:40;27.32;52.35
72202;SHT30;60105;54.956;73.412;2023-07-31T06:53:24;27.55;52.27
72202;SHT30;60105;54.956;73.412;2023-07-31T06:56:25;27.64;49.75
72202;SHT30;60105;54.956;73.412;2023-07-31T06:59:28;27.71;49.61
72202;SHT30;60105;54.956;73.412;2023-07-31T07:02:29;27.80;49.51
72202;SHT30;60105;54.956;73.412;2023-07-31T07:05:30;27.98;49.57
72202;SHT30;60105;54.956;73.412;2023-07-31T07:08:31;28.09;49.03
72202;SHT30;60105;54.956;73.412;2023-07-31T07:11:33;28.11;48.78
72202;SHT30;60105;54.956;73.412;2023-07-31T07:14:35;28.38;50.16
72202;SHT30;60105;54.956;73.412;2023-07-31T07:17:36;28.53;48.68
72202;SHT30;60105;54.956;73.412;2023-07-31T07:20:37;28.19;47.97
72202;SHT30;60105;54.956;73.412;2023-07-31T07:23:39;27.97;48.15
72202;SHT30;60105;54.956;73.412;2023-07-31T07:26:40;27.68;48.43
72202;SHT30;60105;54.956;73.412;2023-07-31T07:29:42;27.49;47.45
72202;SHT30;60105;54.956;73.412;2023-07-31T07:33:24;27.26;48.97
72202;SHT30;60105;54.956;73.412;2023-07-31T07:36:27;27.15;50.16
72202;SHT30;60105;54.956;73.412;2023-07-31T07:39:29;26.95;50.84
72202;SHT30;60105;54.956;73.412;2023-07-31T07:42:30;26.74;52.05
72202;SHT30;60105;54.956;73.412;2023-07-31T07:45:32;26.54;53.42
72202;SHT30;60105;54.956;73.412;2023-07-31T07:48:33;26.37;53.91
72202;SHT30;60105;54.956;73.412;2023-07-31T07:51:34;26.34;54.10
72202;SHT30;60105;54.956;73.412;2023-07-31T07:54:36;26.26;54.27
72202;SHT30;60105;54.956;73.412;2023-07-31T07:57:37;26.13;54.73
72202;SHT30;60105;54.956;73.412;2023-07-31T08:00:39;26.12;55.06
72202;SHT30;60105;54.956;73.412;2023-07-31T08:03:40;26.17;55.71
72202;SHT30;60105;54.956;73.412;2023-07-31T08:06:41;26.18;56.18
72202;SHT30;60105;54.956;73.412;2023-07-31T08:09:42;26.23;56.75
72202;SHT30;60105;54.956;73.412;2023-07-31T08:13:24;26.38;56.15
72202;SHT30;60105;54.956;73.412;2023-07-31T08:16:25;26.59;55.28
72202;SHT30;60105;54.956;73.412;2023-07-31T08:19:27;26.79;54.70
72202;SHT30;60105;54.956;73.412;2023-07-31T08:22:28;26.91;54.66
72202;SHT30;60105;54.956;73.412;2023-07-31T08:25:37;27.05;55.32
72202;SHT30;60105;54.956;73.412;2023-07-31T08:28:38;27.10;55.12
72202;SHT30;60105;54.956;73.412;2023-07-31T08:31:41;27.09;53.95
72202;SHT30;60105;54.956;73.412;2023-07-31T08:34:42;27.17;54.21
72202;SHT30;60105;54.956;73.412;2023-07-31T08:38:25;27.36;54.83
72202;SHT30;60105;54.956;73.412;2023-07-31T08:41:27;27.49;53.57
72202;SHT30;60105;54.956;73.412;2023-07-31T08:44:30;27.63;52.87
72202;SHT30;60105;54.956;73.412;2023-07-31T08:47:33;27.55;50.33
72202;SHT30;60105;54.956;73.412;2023-07-31T08:50:35;27.64;52.83
72202;SHT30;60105;54.956;73.412;2023-07-31T08:53:37;27.70;49.71
72202;SHT30;60105;54.956;73.412;2023-07-31T08:56:39;27.80;49.21
72202;SHT30;60105;54.956;73.412;2023-07-31T08:59:41;27.73;47.06
72202;SHT30;60105;54.956;73.412;2023-07-31T09:03:25;27.50;48.69
72202;SHT30;60105;54.956;73.412;2023-07-31T09:06:28;27.22;49.34
72202;SHT30;60105;54.956;73.412;2023-07-31T09:09:31;27.12;49.78
72202;SHT30;60105;54.956;73.412;2023-07-31T09:12:33;26.96;50.15
72202;SHT30;60105;54.956;73.412;2023-07-31T09:15:35;26.99;52.33
72202;SHT30;60105;54.956;73.412;2023-07-31T09:18:55;26.88;53.57
72202;SHT30;60105;54.956;73.412;2023-07-31T09:21:58;26.81;54.41
72202;SHT30;60105;54.956;73.412;2023-07-31T09:25:19;26.61;54.41
72202;SHT30;60105;54.956;73.412;2023-07-31T09:28:24;26.54;52.27
72202;SHT30;60105;54.956;73.412;2023-07-31T09:31:41;26.89;53.06
72202;SHT30;60105;54.956;73.412;2023-07-31T09:34:43;27.20;53.47
72202;SHT30;60105;54.956;73.412;2023-07-31T09:38:24;27.32;48.84
72202;SHT30;60105;54.956;73.412;2023-07-31T09:41:25;27.42;47.86
72202;SHT30;60105;54.956;73.412;2023-07-31T09:44:40;27.51;48.42
72202;SHT30;60105;54.956;73.412;2023-07-31T09:47:53;27.63;48.51
72202;SHT30;60105;54.956;73.412;2023-07-31T09:50:54;27.64;47.94
72202;SHT30;60105;54.956;73.412;2023-07-31T09:53:56;27.57;46.40
72202;SHT30;60105;54.956;73.412;2023-07-31T09:56:58;27.67;45.29
72202;SHT30;60105;54.956;73.412;2023-07-31T10:00:01;27.81;45.05
72202;SHT30;60105;54.956;73.412;2023-07-31T10:03:24;27.98;44.09
72202;SHT30;60105;54.956;73.412;2023-07-31T10:06:26;28.00;42.85
72202;SHT30;60105;54.956;73.412;2023-07-31T10:09:31;27.95;41.58
72202;SHT30;60105;54.956;73.412;2023-07-31T10:12:33;28.02;42.92
72202;SHT30;60105;54.956;73.412;2023-07-31T10:15:36;28.06;42.32
72202;SHT30;60105;54.956;73.412;2023-07-31T10:18:38;27.92;42.79
72202;SHT30;60105;54.956;73.412;2023-07-31T10:21:42;28.09;43.15
72202;SHT30;60105;54.956;73.412;2023-07-31T10:24:45;28.31;42.39
72202;SHT30;60105;54.956;73.412;2023-07-31T10:28:24;28.51;43.26
72202;SHT30;60105;54.956;73.412;2023-07-31T10:31:28;28.64;43.50
72202;SHT30;60105;54.956;73.412;2023-07-31T10:34:30;28.55;43.71
72202;SHT30;60105;54.956;73.412;2023-07-31T10:37:39;28.35;45.25
72202;SHT30;60105;54.956;73.412;2023-07-31T10:40:41;28.15;45.86
72202;SHT30;60105;54.956;73.412;2023-07-31T10:43:43;28.01;45.40
72202;SHT30;60105;54.956;73.412;2023-07-31T10:46:45;27.95;46.62
72202;SHT30;60105;54.956;73.412;2023-07-31T10:49:47;27.91;46.16
72202;SHT30;60105;54.956;73.412;2023-07-31T10:53:26;28.14;47.20
72202;SHT30;60105;54.956;73.412;2023-07-31T10:56:37;28.31;46.49
72202;SHT30;60105;54.956;73.412;2023-07-31T10:59:38;28.41;45.04
72202;SHT30;60105;54.956;73.412;2023-07-31T11:02:40;28.48;44.41
72202;SHT30;60105;54.956;73.412;2023-07-31T11:08:59;28.31;44.11
72202;SHT30;60105;54.956;73.412;2023-07-31T11:12:00;28.00;44.84
72202;SHT30;60105;54.956;73.412;2023-07-31T11:15:02;27.92;44.97
72202;SHT30;60105;54.956;73.412;2023-07-31T11:18:05;28.14;45.94
72202;SHT30;60105;54.956;73.412;2023-07-31T11:21:15;28.28;46.82
72202;SHT30;60105;54.956;73.412;2023-07-31T11:24:17;28.39;45.64
72202;SHT30;60105;54.956;73.412;2023-07-31T11:27:18;28.45;44.61
72202;SHT30;60105;54.956;73.412;2023-07-31T11:30:19;28.52;45.66
72202;SHT30;60105;54.956;73.412;2023-07-31T11:33:24;28.51;44.08
72202;SHT30;60105;54.956;73.412;2023-07-31T11:36:25;28.63;46.75
72202;SHT30;60105;54.956;73.412;2023-07-31T11:39:26;28.76;45.56
72202;SHT30;60105;54.956;73.412;2023-07-31T11:42:28;28.81;44.79
72202;SHT30;60105;54.956;73.412;2023-07-31T11:45:33;28.97;46.87
72202;SHT30;60105;54.956;73.412;2023-07-31T11:48:37;29.00;44.01
72202;SHT30;60105;54.956;73.412;2023-07-31T11:51:39;28.90;43.91
72202;SHT30;60105;54.956;73.412;2023-07-31T11:54:40;28.89;42.88
72202;SHT30;60105;54.956;73.412;2023-07-31T11:58:24;28.81;43.69
72202;SHT30;60105;54.956;73.412;2023-07-31T12:01:27;28.96;43.67
72202;SHT30;60105;54.956;73.412;2023-07-31T12:04:29;28.99;45.30
72202;SHT30;60105;54.956;73.412;2023-07-31T12:07:52;29.04;44.01
72202;SHT30;60105;54.956;73.412;2023-07-31T12:10:54;28.93;43.99
72202;SHT30;60105;54.956;73.412;2023-07-31T12:13:56;28.77;43.27
72202;SHT30;60105;54.956;73.412;2023-07-31T12:16:59;28.81;43.07
72202;SHT30;60105;54.956;73.412;2023-07-31T12:20:00;28.84;43.40
72202;SHT30;60105;54.956;73.412;2023-07-31T12:23:29;28.79;43.81
72202;SHT30;60105;54.956;73.412;2023-07-31T12:26:34;28.81;45.20
72202;SHT30;60105;54.956;73.412;2023-07-31T12:29:36;28.93;47.63
72202;SHT30;60105;54.956;73.412;2023-07-31T12:32:40;28.96;45.57
72202;SHT30;60105;54.956;73.412;2023-07-31T12:35:44;28.70;44.10
72202;SHT30;60105;54.956;73.412;2023-07-31T12:38:46;28.38;45.38
72202;SHT30;60105;54.956;73.412;2023-07-31T12:41:47;28.19;44.92
72202;SHT30;60105;54.956;73.412;2023-07-31T12:44:48;28.04;44.91
72202;SHT30;60105;54.956;73.412;2023-07-31T12:47:52;27.88;45.27
72202;SHT30;60105;54.956;73.412;2023-07-31T12:50:54;27.78;46.12
72202;SHT30;60105;54.956;73.412;2023-07-31T12:53:55;27.67;44.91
72202;SHT30;60105;54.956;73.412;2023-07-31T12:56:56;27.58;45.13
72202;SHT30;60105;54.956;73.412;2023-07-31T12:59:58;27.60;45.24
72202;SHT30;60105;54.956;73.412;2023-07-31T13:03:24;27.60;44.77
72202;SHT30;60105;54.956;73.412;2023-07-31T13:06:26;27.60;44.52
72202;SHT30;60105;54.956;73.412;2023-07-31T13:09:28;27.67;44.39
72202;SHT30;60105;54.956;73.412;2023-07-31T13:12:29;27.71;44.03
72202;SHT30;60105;54.956;73.412;2023-07-31T13:15:30;27.87;44.82
72202;SHT30;60105;54.956;73.412;2023-07-31T13:18:32;28.02;44.42
72202;SHT30;60105;54.956;73.412;2023-07-31T13:21:33;28.12;43.02
72202;SHT30;60105;54.956;73.412;2023-07-31T13:24:36;28.14;43.10
72202;SHT30;60105;54.956;73.412;2023-07-31T13:27:37;28.09;43.45
72202;SHT30;60105;54.956;73.412;2023-07-31T13:30:42;28.05;42.82
72202;SHT30;60105;54.956;73.412;2023-07-31T13:33:43;28.02;44.58
72202;SHT30;60105;54.956;73.412;2023-07-31T13:36:45;27.92;44.52
72202;SHT30;60105;54.956;73.412;2023-07-31T13:39:47;27.84;48.03
72202;SHT30;60105;54.956;73.412;2023-07-31T13:43:24;27.67;49.25
72202;SHT30;60105;54.956;73.412;2023-07-31T13:46:25;27.55;50.14
72202;SHT30;60105;54.956;73.412;2023-07-31T13:49:27;27.42;51.21
72202;SHT30;60105;54.956;73.412;2023-07-31T13:52:29;27.25;52.15
72202;SHT30;60105;54.956;73.412;2023-07-31T13:55:30;27.15;52.58
72202;SHT30;60105;54.956;73.412;2023-07-31T13:58:33;27.13;52.85
72202;SHT30;60105;54.956;73.412;2023-07-31T14:01:34;27.47;52.35
72202;SHT30;60105;54.956;73.412;2023-07-31T14:04:35;27.44;52.73
72202;SHT30;60105;54.956;73.412;2023-07-31T14:07:37;27.15;53.63
72202;SHT30;60105;54.956;73.412;2023-07-31T14:10:39;26.92;54.73
72202;SHT30;60105;54.956;73.412;2023-07-31T14:13:40;26.75;55.38
72202;SHT30;60105;54.956;73.412;2023-07-31T14:16:41;26.59;56.06
72202;SHT30;60105;54.956;73.412;2023-07-31T14:19:43;26.47;56.75
72202;SHT30;60105;54.956;73.412;2023-07-31T14:23:24;26.33;57.35
72202;SHT30;60105;54.956;73.412;2023-07-31T14:26:25;26.23;57.82
72202;SHT30;60105;54.956;73.412;2023-07-31T14:29:39;26.13;58.15
72202;SHT30;60105;54.956;73.412;2023-07-31T14:33:24;26.04;58.75
72202;SHT30;60105;54.956;73.412;2023-07-31T14:36:27;25.99;58.92
72202;SHT30;60105;54.956;73.412;2023-07-31T14:39:33;25.93;59.27
72202;SHT30;60105;54.956;73.412;2023-07-31T14:42:35;25.80;60.05
72202;SHT30;60105;54.956;73.412;2023-07-31T14:45:37;25.70;60.35
72202;SHT30;60105;54.956;73.412;2023-07-31T14:48:38;25.65;60.48
72202;SHT30;60105;54.956;73.412;2023-07-31T14:51:40;25.66;60.56
72202;SHT30;60105;54.956;73.412;2023-07-31T14:54:42;25.58;60.62
72202;SHT30;60105;54.956;73.412;2023-07-31T14:58:24;25.59;60.53
72202;SHT30;60105;54.956;73.412;2023-07-31T15:01:25;25.55;60.75
72202;SHT30;60105;54.956;73.412;2023-07-31T15:04:27;25.53;60.52
72202;SHT30;60105;54.956;73.412;2023-07-31T15:07:28;25.49;60.98
72202;SHT30;60105;54.956;73.412;2023-07-31T15:10:29;25.46;61.32
72202;SHT30;60105;54.956;73.412;2023-07-31T15:13:31;25.35;60.12
72202;SHT30;60105;54.956;73.412;2023-07-31T15:16:32;25.17;60.30
72202;SHT30;60105;54.956;73.412;2023-07-31T15:19:34;25.00;60.68
72202;SHT30;60105;54.956;73.412;2023-07-31T15:22:37;24.86;61.26
72202;SHT30;60105;54.956;73.412;2023-07-31T15:25:38;24.64;62.51
72202;SHT30;60105;54.956;73.412;2023-07-31T15:28:41;24.49;64.07
72202;SHT30;60105;54.956;73.412;2023-07-31T15:31:43;24.23;65.75
72202;SHT30;60105;54.956;73.412;2023-07-31T15:34:44;23.88;68.00
72202;SHT30;60105;54.956;73.412;2023-07-31T15:38:24;23.54;70.25
72202;SHT30;60105;54.956;73.412;2023-07-31T15:41:26;23.16;72.59
72202;SHT30;60105;54.956;73.412;2023-07-31T15:44:27;22.99;74.14
72202;SHT30;60105;54.956;73.412;2023-07-31T15:47:28;22.75;76.20
72202;SHT30;60105;54.956;73.412;2023-07-31T15:50:30;22.57;76.89
72202;SHT30;60105;54.956;73.412;2023-07-31T15:53:32;22.33;76.30
72202;SHT30;60105;54.956;73.412;2023-07-31T15:56:33;22.16;76.81
72202;SHT30;60105;54.956;73.412;2023-07-31T15:59:35;22.13;78.92
72202;SHT30;60105;54.956;73.412;2023-07-31T16:02:36;22.11;78.38
72202;SHT30;60105;54.956;73.412;2023-07-31T16:05:37;22.08;79.97
72202;SHT30;60105;54.956;73.412;2023-07-31T16:08:39;22.07;79.52
72202;SHT30;60105;54.956;73.412;2023-07-31T16:11:42;22.03;80.84
72202;SHT30;60105;54.956;73.412;2023-07-31T16:14:43;22.04;81.01
72202;SHT30;60105;54.956;73.412;2023-07-31T16:17:52;22.20;80.27
72202;SHT30;60105;54.956;73.412;2023-07-31T16:20:54;22.18;79.76
72202;SHT30;60105;54.956;73.412;2023-07-31T16:23:55;22.17;80.08
72202;SHT30;60105;54.956;73.412;2023-07-31T16:26:57;22.11;80.46
72202;SHT30;60105;54.956;73.412;2023-07-31T16:29:58;22.07;81.20
72202;SHT30;60105;54.956;73.412;2023-07-31T16:33:24;22.01;82.49
72202;SHT30;60105;54.956;73.412;2023-07-31T16:36:25;21.96;82.13
72202;SHT30;60105;54.956;73.412;2023-07-31T16:39:26;21.87;83.30
72202;SHT30;60105;54.956;73.412;2023-07-31T16:42:28;21.96;82.76
72202;SHT30;60105;54.956;73.412;2023-07-31T16:45:30;21.93;81.99
72202;SHT30;60105;54.956;73.412;2023-07-31T16:48:31;21.90;81.43
72202;SHT30;60105;54.956;73.412;2023-07-31T16:51:33;21.87;82.23
72202;SHT30;60105;54.956;73.412;2023-07-31T16:54:34;21.73;83.81
72202;SHT30;60105;54.956;73.412;2023-07-31T16:57:36;21.65;83.95
72202;SHT30;60105;54.956;73.412;2023-07-31T17:00:37;21.60;83.82
72202;SHT30;60105;54.956;73.412;2023-07-31T17:03:39;21.63;84.25
72202;SHT30;60105;54.956;73.412;2023-07-31T17:06:40;21.59;84.62
72202;SHT30;60105;54.956;73.412;2023-07-31T17:09:41;21.56;85.11
72202;SHT30;60105;54.956;73.412;2023-07-31T17:13:24;21.48;85.25
72202;SHT30;60105;54.956;73.412;2023-07-31T17:16:25;21.46;85.31
72202;SHT30;60105;54.956;73.412;2023-07-31T17:19:30;21.41;85.33
72202;SHT30;60105;54.956;73.412;2023-07-31T17:22:31;21.43;85.81
72202;SHT30;60105;54.956;73.412;2023-07-31T17:25:33;21.41;85.97
72202;SHT30;60105;54.956;73.412;2023-07-31T17:28:34;21.31;85.99
72202;SHT30;60105;54.956;73.412;2023-07-31T17:31:35;21.27;86.32
72202;SHT30;60105;54.956;73.412;2023-07-31T17:34:40;21.29;86.67
72202;SHT30;60105;54.956;73.412;2023-07-31T17:38:24;21.29;85.02
72202;SHT30;60105;54.956;73.412;2023-07-31T17:41:25;21.31;84.97
72202;SHT30;60105;54.956;73.412;2023-07-31T17:44:29;21.32;85.05
72202;SHT30;60105;54.956;73.412;2023-07-31T17:47:30;21.28;85.72
72202;SHT30;60105;54.956;73.412;2023-07-31T17:50:32;21.27;85.21
72202;SHT30;60105;54.956;73.412;2023-07-31T17:53:33;21.22;85.38
72202;SHT30;60105;54.956;73.412;2023-07-31T17:56:34;21.17;85.25
72202;SHT30;60105;54.956;73.412;2023-07-31T17:59:38;21.19;85.33
72202;SHT30;60105;54.956;73.412;2023-07-31T18:03:24;21.27;84.53
72202;SHT30;60105;54.956;73.412;2023-07-31T18:06:27;21.28;84.08
72202;SHT30;60105;54.956;73.412;2023-07-31T18:09:29;21.18;84.96
72202;SHT30;60105;54.956;73.412;2023-07-31T18:12:30;21.08;85.75
72202;SHT30;60105;54.956;73.412;2023-07-31T18:15:32;21.01;86.40
72202;SHT30;60105;54.956;73.412;2023-07-31T18:18:33;20.97;86.31
72202;SHT30;60105;54.956;73.412;2023-07-31T18:21:35;20.95;86.48
72202;SHT30;60105;54.956;73.412;2023-07-31T18:24:36;20.98;86.53
72202;SHT30;60105;54.956;73.412;2023-07-31T18:27:38;20.91;86.22
72202;SHT30;60105;54.956;73.412;2023-07-31T18:30:40;21.00;85.97
72202;SHT30;60105;54.956;73.412;2023-07-31T18:33:42;21.00;86.18
72202;SHT30;60105;54.956;73.412;2023-07-31T18:36:43;21.01;85.80
72202;SHT30;60105;54.956;73.412;2023-07-31T18:39:45;21.00;85.61
72202;SHT30;60105;54.956;73.412;2023-07-31T18:43:24;20.94;85.76
72202;SHT30;60105;54.956;73.412;2023-07-31T18:46:25;20.84;85.96
72202;SHT30;60105;54.956;73.412;2023-07-31T18:49:27;20.81;85.96
72202;SHT30;60105;54.956;73.412;2023-07-31T18:52:28;20.74;86.26
72202;SHT30;60105;54.956;73.412;2023-07-31T18:55:30;20.70;86.56
72202;SHT30;60105;54.956;73.412;2023-07-31T18:58:31;20.70;86.43
72202;SHT30;60105;54.956;73.412;2023-07-31T19:01:33;20.67;85.92
72202;SHT30;60105;54.956;73.412;2023-07-31T19:04:34;20.77;85.80
72202;SHT30;60105;54.956;73.412;2023-07-31T19:07:35;20.79;85.65
72202;SHT30;60105;54.956;73.412;2023-07-31T19:10:37;20.80;85.46
72202;SHT30;60105;54.956;73.412;2023-07-31T19:13:39;20.81;85.18
72202;SHT30;60105;54.956;73.412;2023-07-31T19:16:41;20.79;85.21
72202;SHT30;60105;54.956;73.412;2023-07-31T19:19:43;20.71;85.21
72202;SHT30;60105;54.956;73.412;2023-07-31T19:23:24;20.71;85.08